Berlin — 9HA2295 — position and weather

sailwx.info

Track history (hours):
 
Tides and Currents Weather Stations Pressure Air Temp Water Temp Dewpoint Dewpoint Depression Visibility Wind Speed Wind Dir Waves Ship Positions

Berlin

Last reported at 2014-Sep-19 10:33 UTC. Time now 2014-Sep-20 12:05 UTC.
Position N 44°12' E 034°41'.

Length 140 m; draft 5 m.

Type: Passenger vessel. MMSI: 248277000.

Date/timePositionNaut miles runAvg speedWind from/ knotsBaromVisibWave heightAir tempDewpointWater temp
2014-Sep-19 10:33N 44°12' E 034°41'1312.8
2014-Sep-19 09:33N 44°14' E 034°23'1412.4
2014-Sep-19 08:25N 44°15' E 034°03'  
2014-Sep-16 19:33N 41°19' E 029°12'20 0.6
2014-Sep-15 08:33N 41°02' E 028°59'8 7.5
2014-Sep-15 07:31N 41°08' E 029°04'  
2014-Sep-11 17:33N 40°59' E 028°60'1010.2
2014-Sep-11 16:33N 40°51' E 028°51'14812.3
2014-Sep-11 04:32N 39°54' E 025°53'1212.5
2014-Sep-11 03:33N 39°47' E 025°40'124 4.0
2014-Sep-09 20:10N 37°54' E 024°32'1415.0
2014-Sep-09 19:14N 37°45' E 024°18'2813.3
2014-Sep-09 17:08N 37°39' E 023°44'814.3
2014-Sep-09 16:33N 37°46' E 023°39'1010.3
2014-Sep-09 15:33N 37°56' E 023°38'0 0.0
2014-Sep-09 14:33N 37°56' E 023°38'0 0.0
2014-Sep-09 13:33N 37°56' E 023°38'0 0.0
2014-Sep-09 12:33N 37°56' E 023°38'0 0.0
2014-Sep-09 11:33N 37°56' E 023°38'0 0.0
2014-Sep-09 10:33N 37°56' E 023°38'  
Track history (hours):
 
Tides and Currents Weather Stations Pressure Air Temp Water Temp Dewpoint Dewpoint Depression Visibility Wind Speed Wind Dir Waves Ship Positions

Berlin

Last reported at 2014-Sep-19 10:33 UTC. Time now 2014-Sep-20 12:05 UTC.
Position N 44°12' E 034°41'.

Length 140 m; draft 5 m.

Type: Passenger vessel. MMSI: 248277000.

Date/timePositionNaut miles runAvg speedWind from/ knotsBaromVisibWave heightAir tempDewpointWater temp
2014-Sep-19 10:33N 44°12' E 034°41'1312.8
2014-Sep-19 09:33N 44°14' E 034°23'1412.4
2014-Sep-19 08:25N 44°15' E 034°03'  
2014-Sep-16 19:33N 41°19' E 029°12'20 0.6
2014-Sep-15 08:33N 41°02' E 028°59'8 7.5
2014-Sep-15 07:31N 41°08' E 029°04'  
2014-Sep-11 17:33N 40°59' E 028°60'1010.2
2014-Sep-11 16:33N 40°51' E 028°51'14812.3
2014-Sep-11 04:32N 39°54' E 025°53'1212.5
2014-Sep-11 03:33N 39°47' E 025°40'124 4.0
2014-Sep-09 20:10N 37°54' E 024°32'1415.0
2014-Sep-09 19:14N 37°45' E 024°18'2813.3
2014-Sep-09 17:08N 37°39' E 023°44'814.3
2014-Sep-09 16:33N 37°46' E 023°39'1010.3
2014-Sep-09 15:33N 37°56' E 023°38'0 0.0
2014-Sep-09 14:33N 37°56' E 023°38'0 0.0
2014-Sep-09 13:33N 37°56' E 023°38'0 0.0
2014-Sep-09 12:33N 37°56' E 023°38'0 0.0
2014-Sep-09 11:33N 37°56' E 023°38'0 0.0
2014-Sep-09 10:33N 37°56' E 023°38'  

Dump ship's entire track history